Time;durP1;ratioP1;P1;durP2;ratioP2;P2;SDS_P1;SDS_P2;PMS_P1;PMS_P2;Temp;Humidity;BMP_temperature;BMP_pressure;BME280_temperature;BME280_humidity;BME280_pressure;Samples;Min_cycle;Max_cycle;Signal;HPM_P1;HPM_P2
2021/12/21 00:01:55;;;;;;;20.03;12.00;;;;;;;-2.81;100.00;102759.13;5013179;28;20021;-57
2021/12/21 00:04:20;;;;;;;19.67;11.53;;;;;;;-2.81;100.00;102751.50;5012474;28;20038;-59
2021/12/21 00:06:45;;;;;;;19.00;10.70;;;;;;;-2.82;100.00;102755.69;5012816;28;20056;-58
2021/12/21 00:09:10;;;;;;;22.40;11.00;;;;;;;-2.82;100.00;102754.75;5012525;28;20474;-59
2021/12/21 00:11:36;;;;;;;20.57;11.33;;;;;;;-2.83;100.00;102755.50;5012542;28;20502;-59
2021/12/21 00:16:49;;;;;;;22.40;10.67;;;;;;;-2.86;100.00;102750.06;5013004;28;20528;-58
2021/12/21 00:21:52;;;;;;;;;;;;;;;-2.87;100.00;102748.25;5013043;28;20458;-56
2021/12/21 00:24:22;;;;;;;19.33;10.23;;;;;;;-2.88;100.00;102746.44;5012010;28;19940;-57
2021/12/21 00:26:47;;;;;;;22.50;9.83;;;;;;;-2.91;100.00;102737.75;5012610;28;20598;-58
2021/12/21 00:29:13;;;;;;;18.77;10.23;;;;;;;-2.93;100.00;102735.78;5012347;28;20032;-57
2021/12/21 00:31:38;;;;;;;19.30;10.30;;;;;;;-2.94;100.00;102739.94;5012611;28;20097;-59
2021/12/21 00:34:08;;;;;;;22.00;11.00;;;;;;;-2.95;100.00;102737.22;5012165;28;20026;-58
2021/12/21 00:36:35;;;;;;;20.97;10.50;;;;;;;-2.96;100.00;102737.91;5012712;28;20030;-58
2021/12/21 00:39:06;;;;;;;17.93;9.70;;;;;;;-2.99;100.00;102730.88;5012122;28;20069;-59
2021/12/21 00:41:32;;;;;;;20.05;10.77;;;;;;;-2.99;100.00;102727.41;5010134;28;20040;-58
2021/12/21 00:43:58;;;;;;;18.13;9.43;;;;;;;-3.03;100.00;102726.16;5012325;28;20032;-58
2021/12/21 00:46:24;;;;;;;21.30;10.10;;;;;;;-3.05;100.00;102725.06;5012118;28;20025;-56
2021/12/21 00:48:53;;;;;;;19.40;10.17;;;;;;;-3.06;100.00;102730.88;5012681;28;20112;-59
2021/12/21 00:51:21;;;;;;;19.00;10.67;;;;;;;-3.07;100.00;102729.97;5012031;28;20437;-58
2021/12/21 00:53:46;;;;;;;20.80;10.07;;;;;;;-3.09;100.00;102730.50;5011821;28;20033;-58
2021/12/21 00:56:12;;;;;;;19.80;9.83;;;;;;;-3.11;100.00;102729.44;5011867;28;20458;-59
2021/12/21 00:58:38;;;;;;;17.80;9.97;;;;;;;-3.15;100.00;102721.44;5011224;28;20470;-61
2021/12/21 01:01:05;;;;;;;20.80;10.20;;;;;;;-3.16;100.00;102728.88;5012001;28;20434;-59
2021/12/21 01:03:33;;;;;;;19.23;9.97;;;;;;;-3.16;100.00;102724.72;5011554;28;20025;-58
2021/12/21 01:06:11;;;;;;;23.07;10.30;;;;;;;-3.20;100.00;102714.03;5012068;28;20391;-58
2021/12/21 01:08:44;;;;;;;16.87;9.77;;;;;;;-3.24;100.00;102715.28;5011347;28;20040;-57
2021/12/21 01:11:16;;;;;;;21.93;11.40;;;;;;;-3.24;100.00;102722.00;5011417;28;20033;-59
2021/12/21 01:16:19;;;;;;;25.23;10.03;;;;;;;-3.27;100.00;102722.53;5011575;28;20034;-59
2021/12/21 01:19:05;;;;;;;19.37;9.87;;;;;;;-3.29;100.00;102735.03;5011723;28;20471;-59
2021/12/21 01:21:43;;;;;;;29.13;12.63;;;;;;;-3.29;100.00;102731.59;5008347;28;20022;-58
2021/12/21 01:27:14;;;;;;;23.87;9.93;;;;;;;-3.33;100.00;102734.50;5011244;28;20063;-58
2021/12/21 01:29:42;;;;;;;21.57;10.07;;;;;;;-3.34;100.00;102722.50;5007534;28;20482;-59
2021/12/21 01:37:27;;;;;;;21.47;9.63;;;;;;;-3.45;100.00;102728.88;5011524;28;20042;-57
2021/12/21 01:43:03;;;;;;;17.20;9.93;;;;;;;-3.51;100.00;102718.91;5007969;28;20115;-58
2021/12/21 01:50:56;;;;;;;20.73;9.57;;;;;;;-3.55;100.00;102711.63;5009841;28;20461;-57
2021/12/21 01:53:22;;;;;;;20.73;11.00;;;;;;;-3.56;100.00;102710.72;5010714;28;20073;-58
2021/12/21 01:55:47;;;;;;;20.40;10.90;;;;;;;-3.55;100.00;102706.56;5010681;28;20030;-58
2021/12/21 01:58:13;;;;;;;26.43;10.43;;;;;;;-3.54;100.00;102705.84;5010909;28;20084;-57
2021/12/21 02:00:39;;;;;;;22.27;11.90;;;;;;;-3.54;100.00;102708.38;5011604;28;20113;-59
2021/12/21 02:03:05;;;;;;;23.47;11.37;;;;;;;-3.57;100.00;102708.00;5010988;28;20382;-58
2021/12/21 02:05:31;;;;;;;20.30;10.13;;;;;;;-3.59;100.00;102704.38;5010903;28;20462;-59
2021/12/21 02:07:57;;;;;;;23.63;11.07;;;;;;;-3.58;100.00;102701.13;5010119;28;20541;-59
2021/12/21 02:10:22;;;;;;;19.97;10.03;;;;;;;-3.62;100.00;102697.34;5009977;28;20033;-57
2021/12/21 02:12:48;;;;;;;22.97;9.77;;;;;;;-3.63;100.00;102698.94;5010941;28;20040;-59
2021/12/21 02:15:13;;;;;;;21.53;10.47;;;;;;;-3.65;100.00;102689.38;5010800;28;20378;-57
2021/12/21 02:20:41;;;;;;;19.03;9.53;;;;;;;-3.67;100.00;102691.69;5010245;28;20037;-58
2021/12/21 02:23:11;;;;;;;26.53;10.23;;;;;;;-3.68;100.00;102694.03;5007682;28;20038;-57
2021/12/21 02:28:32;;;;;;;15.33;9.53;;;;;;;-3.71;100.00;102689.53;5010785;28;20068;-57
2021/12/21 02:30:58;;;;;;;;;;;;;;;-3.73;100.00;102696.03;5010689;28;20501;-58
2021/12/21 02:33:26;;;;;;;19.70;10.40;;;;;;;-3.74;100.00;102694.22;5010028;28;19921;-59
2021/12/21 02:35:51;;;;;;;20.90;9.70;;;;;;;-3.75;100.00;102692.41;5010491;28;20033;-58
2021/12/21 02:38:17;;;;;;;21.93;10.83;;;;;;;-3.77;100.00;102688.78;5010229;28;20053;-57
2021/12/21 02:40:44;;;;;;;19.60;10.27;;;;;;;-3.78;100.00;102692.06;5024390;28;20037;-57
2021/12/21 02:43:10;;;;;;;21.17;10.17;;;;;;;-3.81;100.00;102686.63;5010352;28;20029;-59
2021/12/21 02:45:36;;;;;;;22.57;11.43;;;;;;;-3.83;100.00;102683.00;5009146;28;20030;-58
2021/12/21 02:48:02;;;;;;;17.10;9.23;;;;;;;-3.86;100.00;102681.91;5009923;28;20030;-57
2021/12/21 02:50:28;;;;;;;19.07;9.97;;;;;;;-3.84;100.00;102691.31;5009867;28;20037;-58
2021/12/21 02:52:53;;;;;;;21.23;10.27;;;;;;;-3.88;100.00;102690.03;5009510;28;20104;-58
2021/12/21 02:55:19;;;;;;;23.10;10.33;;;;;;;-3.91;100.00;102688.06;5009351;28;20494;-57
2021/12/21 02:57:44;;;;;;;22.17;10.33;;;;;;;-3.93;100.00;102678.44;5007859;28;20434;-59
2021/12/21 03:00:11;;;;;;;18.90;9.83;;;;;;;-3.96;100.00;102681.53;5009864;28;20478;-57
2021/12/21 03:02:37;;;;;;;18.73;10.20;;;;;;;-3.98;100.00;102673.75;5009424;28;20037;-59
2021/12/21 03:05:03;;;;;;;18.80;9.70;;;;;;;-3.99;100.00;102678.59;5009493;28;20034;-59
2021/12/21 03:10:01;;;;;;;20.33;10.60;;;;;;;-3.99;100.00;102688.72;5009725;28;20038;-57
2021/12/21 03:15:12;;;;;;;20.07;9.77;;;;;;;-4.01;100.00;102677.53;4980896;28;20509;-57
2021/12/21 03:17:38;;;;;;;25.23;10.37;;;;;;;-4.00;100.00;102679.31;4975474;28;20046;-58
2021/12/21 03:20:04;;;;;;;18.83;9.90;;;;;;;-4.03;100.00;102679.84;4978151;28;20893;-57
2021/12/21 03:22:29;;;;;;;19.97;10.77;;;;;;;-4.03;100.00;102678.97;4972738;28;20074;-57
2021/12/21 03:24:54;;;;;;;21.70;11.17;;;;;;;-4.06;100.00;102669.34;4985133;28;20068;-57
2021/12/21 03:27:20;;;;;;;24.30;10.23;;;;;;;-4.05;100.00;102675.34;4973952;28;20043;-59
2021/12/21 03:29:45;;;;;;;23.07;10.60;;;;;;;-4.06;100.00;102668.44;4981084;28;20499;-57
2021/12/21 03:32:10;;;;;;;17.80;10.43;;;;;;;-4.06;100.00;102670.97;4980268;28;20045;-57
2021/12/21 03:34:36;;;;;;;25.93;10.53;;;;;;;-4.07;100.00;102671.72;4979999;28;20031;-58
2021/12/21 03:37:04;;;;;;;21.87;10.70;;;;;;;-4.10;100.00;102667.16;4974909;28;20431;-57
2021/12/21 03:39:30;;;;;;;18.80;10.23;;;;;;;-4.11;100.00;102671.34;4975803;28;20063;-57
2021/12/21 03:41:57;;;;;;;21.77;11.10;;;;;;;-4.11;100.00;102675.50;4978855;28;20070;-59
2021/12/21 03:44:24;;;;;;;21.27;11.10;;;;;;;-4.11;100.00;102660.31;4987630;28;20483;-58
2021/12/21 03:46:53;;;;;;;21.10;10.90;;;;;;;-4.13;100.00;102667.72;4982100;28;20051;-58
2021/12/21 03:52:09;;;;;;;17.37;8.97;;;;;;;-4.17;100.00;102669.72;4990950;28;20116;-56
2021/12/21 03:54:36;;;;;;;20.53;9.77;;;;;;;-4.21;100.00;102663.34;5004504;28;20034;-58
2021/12/21 03:57:02;;;;;;;18.97;9.10;;;;;;;-4.23;100.00;102664.78;5008764;28;20037;-58
2021/12/21 03:59:27;;;;;;;20.57;10.40;;;;;;;-4.24;100.00;102670.56;5008780;28;20061;-59
2021/12/21 04:01:53;;;;;;;19.93;10.37;;;;;;;-4.25;100.00;102656.09;5006641;28;20040;-57
2021/12/21 04:04:19;;;;;;;21.17;10.30;;;;;;;-4.26;100.00;102660.25;5008704;28;20121;-58
2021/12/21 04:06:46;;;;;;;20.33;9.37;;;;;;;-4.29;100.00;102658.97;5008931;28;20030;-56
2021/12/21 04:09:12;;;;;;;23.33;10.03;;;;;;;-4.29;100.00;102653.91;5009341;28;20034;-58
2021/12/21 04:11:37;;;;;;;17.60;10.03;;;;;;;-4.33;100.00;102657.69;5008605;28;20028;-57
2021/12/21 04:14:03;;;;;;;17.83;9.30;;;;;;;-4.32;100.00;102656.06;5008066;28;20101;-57
2021/12/21 04:16:29;;;;;;;14.20;8.30;;;;;;;-4.34;100.00;102659.34;5008745;28;20485;-58
2021/12/21 04:18:55;;;;;;;22.67;9.73;;;;;;;-4.32;100.00;102666.19;5008869;28;20064;-58
2021/12/21 04:21:20;;;;;;;22.17;9.80;;;;;;;-4.36;100.00;102662.38;5008906;28;20040;-58
2021/12/21 04:23:46;;;;;;;19.27;9.27;;;;;;;-4.40;100.00;102666.16;5008428;28;20076;-58
2021/12/21 04:26:13;;;;;;;16.67;9.70;;;;;;;-4.41;100.00;102660.94;5008504;28;20104;-57
2021/12/21 04:28:39;;;;;;;20.53;9.43;;;;;;;-4.43;100.00;102655.69;5008509;28;20105;-58
2021/12/21 04:31:06;;;;;;;19.13;10.20;;;;;;;-4.43;100.00;102653.16;5008826;28;20101;-58
2021/12/21 04:33:33;;;;;;;23.40;11.53;;;;;;;-4.42;100.00;102659.09;5012740;28;20608;-58
2021/12/21 04:35:59;;;;;;;21.73;9.77;;;;;;;-4.44;100.00;102663.09;5012360;28;20022;-57
2021/12/21 04:38:29;;;;;;;17.07;10.53;;;;;;;-4.44;100.00;102661.44;5012428;28;20030;-58
2021/12/21 04:41:02;;;;;;;19.67;10.30;;;;;;;-4.46;100.00;102655.28;5012109;28;20084;-57
2021/12/21 04:43:28;;;;;;;19.27;9.23;;;;;;;-4.48;100.00;102652.56;5010480;28;20076;-56
2021/12/21 04:45:53;;;;;;;18.37;9.10;;;;;;;-4.50;100.00;102646.44;5012138;28;20386;-58
2021/12/21 04:48:19;;;;;;;20.67;9.53;;;;;;;-4.52;100.00;102654.53;5011790;28;20478;-57
2021/12/21 04:50:45;;;;;;;21.30;9.70;;;;;;;-4.55;100.00;102644.94;5012015;28;20401;-58
2021/12/21 04:53:10;;;;;;;22.03;10.43;;;;;;;-4.54;100.00;102646.78;5011797;28;20512;-58
2021/12/21 04:55:36;;;;;;;17.27;10.40;;;;;;;-4.55;100.00;102649.13;5012125;28;20040;-60
2021/12/21 04:58:02;;;;;;;21.27;10.43;;;;;;;-4.57;100.00;102641.34;5011958;28;20026;-58
2021/12/21 05:00:28;;;;;;;18.17;10.17;;;;;;;-4.59;100.00;102642.78;5010126;28;20030;-58
2021/12/21 05:02:53;;;;;;;24.43;10.87;;;;;;;-4.62;100.00;102645.81;5011892;28;20073;-58
2021/12/21 05:05:19;;;;;;;22.37;10.47;;;;;;;-4.62;100.00;102643.28;5011441;28;20034;-60
2021/12/21 05:07:49;;;;;;;20.37;10.23;;;;;;;-4.63;100.00;102645.63;5011756;28;20054;-56
2021/12/21 05:10:14;;;;;;;20.50;10.80;;;;;;;-4.61;100.00;102649.25;5011668;28;20033;-60
2021/12/21 05:12:39;;;;;;;22.30;9.77;;;;;;;-4.63;100.00;102648.16;5011540;28;20034;-58
2021/12/21 05:15:06;;;;;;;22.83;10.73;;;;;;;-4.64;100.00;102649.78;5011417;28;20113;-57
2021/12/21 05:17:32;;;;;;;17.90;10.93;;;;;;;-4.65;100.00;102655.56;5011475;28;20026;-58
2021/12/21 05:19:57;;;;;;;27.33;11.20;;;;;;;-4.67;100.00;102656.09;5011101;28;20034;-58
2021/12/21 05:22:23;;;;;;;20.90;10.20;;;;;;;-4.68;100.00;102657.75;5011594;28;20493;-58
2021/12/21 05:24:49;;;;;;;18.80;9.70;;;;;;;-4.69;100.00;102655.91;5011239;28;20080;-57
2021/12/21 05:27:14;;;;;;;22.70;10.80;;;;;;;-4.68;100.00;102657.75;5011606;28;20026;-57
2021/12/21 05:29:39;;;;;;;17.13;9.80;;;;;;;-4.71;100.00;102652.28;5011250;28;20567;-57
2021/12/21 05:32:05;;;;;;;16.00;9.60;;;;;;;-4.73;100.00;102653.75;5010995;28;20468;-56
2021/12/21 05:34:31;;;;;;;19.50;10.37;;;;;;;-4.75;100.00;102651.00;5011298;28;20030;-57
2021/12/21 05:36:57;;;;;;;17.47;9.27;;;;;;;-4.76;100.00;102658.41;5009984;28;20442;-58
2021/12/21 05:39:26;;;;;;;22.23;10.83;;;;;;;-4.78;100.00;102650.63;5011136;28;20030;-59
2021/12/21 05:41:55;;;;;;;20.67;9.83;;;;;;;-4.78;100.00;102650.63;5010446;28;20061;-59
2021/12/21 05:44:23;;;;;;;17.83;9.73;;;;;;;-4.80;100.00;102656.22;5009793;28;20536;-59
2021/12/21 05:46:51;;;;;;;17.20;9.60;;;;;;;-4.83;100.00;102657.66;5010592;28;20033;-58
2021/12/21 05:49:17;;;;;;;15.57;9.80;;;;;;;-4.85;100.00;102654.03;5011265;28;20072;-58
2021/12/21 05:51:43;;;;;;;18.07;10.73;;;;;;;-4.86;100.00;102657.28;5010506;28;20021;-56
2021/12/21 05:54:08;;;;;;;20.10;10.40;;;;;;;-4.87;100.00;102660.50;5009614;28;20073;-57
2021/12/21 05:56:34;;;;;;;22.70;10.17;;;;;;;-4.88;100.00;102663.78;5010528;28;20026;-58
2021/12/21 05:59:02;;;;;;;21.17;9.77;;;;;;;-4.90;100.00;102655.06;5008203;28;20112;-59
2021/12/21 06:01:28;;;;;;;16.67;10.43;;;;;;;-4.92;100.00;102655.59;5010559;28;20037;-58
2021/12/21 06:03:54;;;;;;;16.13;10.10;;;;;;;-4.96;100.00;102651.78;5010088;28;20027;-59
2021/12/21 06:06:19;;;;;;;17.83;10.27;;;;;;;-4.97;100.00;102643.31;5010323;28;20116;-59
2021/12/21 06:08:47;;;;;;;21.60;10.30;;;;;;;-4.98;100.00;102646.53;5009814;28;20080;-59
2021/12/21 06:11:14;;;;;;;19.97;9.50;;;;;;;-4.99;100.00;102651.41;5008641;28;20080;-57
2021/12/21 06:14:55;;;;;;;19.70;9.70;;;;;;;-4.99;100.00;102657.38;5010096;28;20030;-57
2021/12/21 06:27:43;;;;;;;16.93;9.77;;;;;;;-5.03;100.00;102662.75;4929498;29;20044;-56
2021/12/21 06:30:10;;;;;;;24.33;11.50;;;;;;;-5.03;100.00;102656.78;4930067;29;20122;-56
2021/12/21 06:32:35;;;;;;;18.27;10.87;;;;;;;-5.04;100.00;102655.00;4931352;29;20392;-57
2021/12/21 06:35:01;;;;;;;24.73;10.33;;;;;;;-5.06;100.00;102647.22;4934095;29;20146;-58
2021/12/21 06:37:26;;;;;;;19.80;10.50;;;;;;;-5.09;100.00;102647.72;4929493;29;20035;-58
2021/12/21 06:39:52;;;;;;;15.67;9.23;;;;;;;-5.09;100.00;102652.78;4928986;29;20047;-58
2021/12/21 06:42:18;;;;;;;23.57;10.73;;;;;;;-5.09;100.00;102647.72;4928781;29;20488;-58
2021/12/21 06:44:45;;;;;;;21.77;11.13;;;;;;;-5.09;100.00;102652.78;4929172;29;20485;-57
2021/12/21 06:52:40;;;;;;;20.80;11.20;;;;;;;-5.16;100.00;102657.78;4928544;29;20066;-58
2021/12/21 06:55:07;;;;;;;18.40;10.60;;;;;;;-5.15;100.00;102663.75;4929085;29;20031;-59
2021/12/21 06:57:32;;;;;;;18.40;11.27;;;;;;;-5.16;100.00;102662.84;4936964;29;20267;-58
2021/12/21 06:59:58;;;;;;;21.73;12.63;;;;;;;-5.16;100.00;102660.31;4948025;29;20031;-59
2021/12/21 07:02:23;;;;;;;21.47;12.93;;;;;;;-5.18;100.00;102661.78;4953697;28;20043;-56
2021/12/21 07:04:49;;;;;;;27.10;12.07;;;;;;;-5.19;100.00;102658.31;5008907;28;20256;-59
2021/12/21 07:07:16;;;;;;;22.30;12.20;;;;;;;-5.23;100.00;102660.25;5009318;28;20129;-58
2021/12/21 07:09:44;;;;;;;23.60;13.40;;;;;;;-5.24;100.00;102655.94;5009269;28;20098;-59
2021/12/21 07:20:10;;;;;;;21.63;12.03;;;;;;;-5.30;100.00;102662.03;5009076;28;20053;-58
2021/12/21 07:22:35;;;;;;;22.70;12.70;;;;;;;-5.30;100.00;102662.03;5008418;28;20043;-59
2021/12/21 07:25:01;;;;;;;25.07;13.67;;;;;;;-5.27;100.00;102665.66;5008487;28;20113;-58
2021/12/21 07:27:26;;;;;;;19.73;11.50;;;;;;;-5.26;100.00;102667.47;5008776;28;20076;-58
2021/12/21 07:29:51;;;;;;;24.63;11.50;;;;;;;-5.26;100.00;102673.44;5008394;28;20220;-59
2021/12/21 07:32:17;;;;;;;21.37;12.03;;;;;;;-5.27;100.00;102671.59;5006983;28;20489;-57
2021/12/21 07:34:42;;;;;;;22.83;11.87;;;;;;;-5.26;100.00;102667.47;5007055;28;20037;-59
2021/12/21 07:37:09;;;;;;;25.17;12.03;;;;;;;-5.23;100.00;102672.91;5007069;28;20026;-60
2021/12/21 07:39:36;;;;;;;20.60;10.53;;;;;;;-5.21;100.00;102672.41;5008720;28;20034;-56
2021/12/21 07:42:04;;;;;;;20.03;11.53;;;;;;;-5.24;100.00;102664.44;5008633;28;20038;-58
2021/12/21 07:44:29;;;;;;;21.33;11.57;;;;;;;-5.25;100.00;102672.72;5004758;28;20034;-56
2021/12/21 07:46:55;;;;;;;20.80;11.57;;;;;;;-5.26;100.00;102670.00;5009469;28;20104;-58
2021/12/21 07:49:20;;;;;;;24.30;12.00;;;;;;;-5.26;100.00;102680.09;5008782;28;20048;-57
2021/12/21 07:51:48;;;;;;;22.10;11.23;;;;;;;-5.25;100.00;102680.28;5008167;28;20022;-56
2021/12/21 07:54:13;;;;;;;22.00;11.83;;;;;;;-5.24;100.00;102686.28;5007864;28;20271;-58
2021/12/21 07:56:39;;;;;;;17.67;10.70;;;;;;;-5.26;100.00;102686.09;5008549;28;20108;-58
2021/12/21 07:59:04;;;;;;;16.33;11.20;;;;;;;-5.27;100.00;102681.72;5008664;28;20022;-61
2021/12/21 08:01:30;;;;;;;18.07;11.20;;;;;;;-5.27;100.00;102680.84;5008287;28;20513;-58
2021/12/21 08:03:57;;;;;;;23.07;12.07;;;;;;;-5.27;100.00;102685.91;5008048;28;20554;-57
2021/12/21 08:06:22;;;;;;;22.73;12.47;;;;;;;-5.26;100.00;102680.09;5009731;28;20026;-61
2021/12/21 08:08:49;;;;;;;17.70;11.30;;;;;;;-5.26;100.00;102686.09;5012774;28;20028;-58
2021/12/21 08:12:10;;;;;;;20.53;12.50;;;;;;;-5.26;100.00;102687.69;5012857;28;20025;-58
2021/12/21 08:14:01;;;;;;;21.57;11.60;;;;;;;-5.25;100.00;102690.41;5012958;28;20034;-58
2021/12/21 08:16:26;;;;;;;20.87;11.07;;;;;;;-5.24;100.00;102688.81;5012806;28;20022;-57
2021/12/21 08:18:52;;;;;;;20.77;11.83;;;;;;;-5.26;100.00;102688.59;5010494;28;20029;-59
2021/12/21 08:21:18;;;;;;;23.63;12.37;;;;;;;-5.25;100.00;102690.41;5006167;28;20030;-58
2021/12/21 08:23:44;;;;;;;20.77;11.97;;;;;;;-5.24;100.00;102677.06;5004258;28;20042;-58
2021/12/21 08:26:10;;;;;;;24.37;12.40;;;;;;;-5.25;100.00;102682.81;5007562;28;20022;-58
2021/12/21 08:28:35;;;;;;;27.50;12.97;;;;;;;-5.23;100.00;102688.06;5011199;28;20421;-57
2021/12/21 08:31:01;;;;;;;21.37;12.63;;;;;;;-5.21;100.00;102687.56;5012294;28;20332;-58
2021/12/21 08:33:26;;;;;;;23.90;13.23;;;;;;;-5.16;100.00;102690.66;5012144;28;20034;-57
2021/12/21 08:35:51;;;;;;;27.90;14.50;;;;;;;-5.12;100.00;102681.84;5008355;28;20026;-58
2021/12/21 08:38:19;;;;;;;20.37;11.67;;;;;;;-5.10;100.00;102675.34;5011985;28;20029;-58
2021/12/21 08:40:49;;;;;;;28.97;13.57;;;;;;;-5.04;100.00;102682.81;5005685;28;20144;-58
2021/12/21 08:43:18;;;;;;;20.53;12.57;;;;;;;-4.94;100.00;102689.22;5001743;28;20044;-58
2021/12/21 08:45:45;;;;;;;20.27;11.67;;;;;;;-4.78;100.00;102692.72;5009776;28;20037;-58
2021/12/21 08:48:12;;;;;;;22.30;13.13;;;;;;;-4.70;100.00;102697.13;5007897;28;20022;-61
2021/12/21 08:50:38;;;;;;;19.00;12.20;;;;;;;-4.56;100.00;102697.91;5011439;28;20038;-57
2021/12/21 08:53:04;;;;;;;23.87;12.90;;;;;;;-4.32;100.00;102696.59;5002220;28;20049;-58
2021/12/21 08:55:30;;;;;;;18.40;12.07;;;;;;;-4.17;100.00;102690.84;5008788;28;20026;-58
2021/12/21 08:57:56;;;;;;;22.80;12.10;;;;;;;-4.07;100.00;102690.34;5007136;28;20029;-58
2021/12/21 09:00:21;;;;;;;20.27;11.97;;;;;;;-4.01;100.00;102690.19;5011409;28;20165;-58
2021/12/21 09:02:47;;;;;;;24.87;11.93;;;;;;;-3.99;100.00;102693.78;5006782;28;20028;-58
2021/12/21 09:05:19;;;;;;;26.27;13.67;;;;;;;-4.00;100.00;102702.13;5007160;28;20034;-58
2021/12/21 09:07:49;;;;;;;20.73;13.03;;;;;;;-4.03;100.00;102695.06;5007762;28;20389;-58
2021/12/21 09:10:16;;;;;;;32.70;12.57;;;;;;;-4.04;100.00;102702.47;5008880;28;20033;-58
2021/12/21 09:12:43;;;;;;;24.07;13.40;;;;;;;-4.07;100.00;102700.50;5006557;28;20108;-59
2021/12/21 09:15:10;;;;;;;25.23;14.47;;;;;;;-4.07;100.00;102707.16;5011081;28;20030;-59
2021/12/21 09:17:35;;;;;;;24.90;14.27;;;;;;;-4.06;100.00;102702.28;5009801;28;20037;-56
2021/12/21 09:20:02;;;;;;;26.17;14.77;;;;;;;-4.02;100.00;102708.63;5004987;28;20026;-58
2021/12/21 09:22:27;;;;;;;29.60;15.60;;;;;;;-4.02;100.00;102696.88;5007386;28;20478;-58
2021/12/21 09:24:52;;;;;;;25.03;15.33;;;;;;;-4.02;100.00;102701.03;5008390;28;20387;-59
2021/12/21 09:27:18;;;;;;;29.40;15.23;;;;;;;-4.01;100.00;102702.88;5010025;28;20025;-57
2021/12/21 09:29:45;;;;;;;27.50;15.00;;;;;;;-3.97;100.00;102702.50;5010980;28;20104;-59
2021/12/21 09:32:13;;;;;;;24.67;15.37;;;;;;;-3.95;100.00;102697.59;5008802;28;20040;-58
2021/12/21 09:34:42;;;;;;;26.17;17.53;;;;;;;-3.93;100.00;102697.09;5005611;28;20046;-58
2021/12/21 09:37:14;;;;;;;23.63;16.00;;;;;;;-3.90;100.00;102699.97;5005595;28;20026;-58
2021/12/21 09:39:44;;;;;;;26.90;16.33;;;;;;;-3.88;100.00;102693.47;5008649;28;20048;-58
2021/12/21 09:42:13;;;;;;;25.63;16.47;;;;;;;-3.84;100.00;102691.31;5010702;28;20390;-59
2021/12/21 09:44:39;;;;;;;27.03;16.53;;;;;;;-3.76;100.00;102693.16;5010384;28;20057;-58
2021/12/21 09:47:06;;;;;;;28.13;16.70;;;;;;;-3.72;100.00;102692.78;5001156;28;20068;-57
2021/12/21 09:49:32;;;;;;;23.07;16.53;;;;;;;-3.68;100.00;102694.97;5006072;28;20026;-58
2021/12/21 09:51:57;;;;;;;26.00;16.67;;;;;;;-3.62;100.00;102687.19;5002748;28;20482;-59
2021/12/21 09:54:25;;;;;;;27.07;15.97;;;;;;;-3.57;100.00;102692.78;5004697;28;20030;-59
2021/12/21 09:56:50;;;;;;;30.83;17.97;;;;;;;-3.48;100.00;102688.84;5010113;28;20025;-58
2021/12/21 09:59:16;;;;;;;28.57;18.90;;;;;;;-3.38;100.00;102688.28;5004839;28;20373;-58
2021/12/21 10:01:41;;;;;;;27.97;18.33;;;;;;;-3.27;100.00;102684.47;5010447;28;20032;-57
2021/12/21 10:04:06;;;;;;;33.80;17.70;;;;;;;-3.16;100.00;102689.19;5008586;28;20475;-57
2021/12/21 10:06:43;;;;;;;26.10;16.50;;;;;;;-3.05;100.00;102684.47;5000705;28;20038;-57
2021/12/21 10:09:09;;;;;;;29.70;17.43;;;;;;;-2.95;100.00;102682.28;5009944;28;20556;-57
2021/12/21 10:11:43;;;;;;;22.80;16.60;;;;;;;-2.85;100.00;102675.72;5010652;28;20033;-58
2021/12/21 10:14:08;;;;;;;26.53;16.37;;;;;;;-2.74;100.00;102676.97;5006271;28;20030;-58
2021/12/21 10:16:34;;;;;;;24.97;17.30;;;;;;;-2.64;100.00;102676.44;5009761;28;20382;-58
2021/12/21 10:18:59;;;;;;;24.93;15.60;;;;;;;-2.53;100.00;102678.53;5009755;28;20029;-58
2021/12/21 10:21:25;;;;;;;31.20;17.00;;;;;;;-2.47;100.00;102674.19;5009373;28;20547;-59
2021/12/21 10:23:51;;;;;;;27.53;16.50;;;;;;;-2.40;100.00;102678.31;5002779;28;20018;-59
2021/12/21 10:26:23;;;;;;;27.40;15.20;;;;;;;-2.32;100.00;102676.66;5007427;28;20028;-58
2021/12/21 10:28:50;;;;;;;23.10;15.47;;;;;;;-2.24;100.00;102664.81;5007870;28;20040;-57
2021/12/21 10:31:36;;;;;;;24.80;14.83;;;;;;;-2.17;100.00;102652.09;5006758;28;20022;-57
2021/12/21 10:34:04;;;;;;;24.53;15.60;;;;;;;-2.09;100.00;102658.97;5003002;28;20022;-58
2021/12/21 10:36:30;;;;;;;24.63;15.53;;;;;;;-2.01;100.00;102658.88;5008238;28;20037;-57
2021/12/21 10:39:01;;;;;;;22.27;15.20;;;;;;;-1.92;100.00;102651.41;5010104;28;20022;-57
2021/12/21 10:41:28;;;;;;;24.42;15.30;;;;;;;-1.85;100.00;102658.97;5009747;28;20029;-58
2021/12/21 10:44:04;;;;;;;23.67;14.87;;;;;;;-1.81;100.00;102661.13;5006707;28;20200;-58
2021/12/21 10:46:37;;;;;;;21.17;14.63;;;;;;;-1.75;100.00;102653.28;5009296;28;20552;-58
2021/12/21 10:49:13;;;;;;;26.33;14.93;;;;;;;-1.71;100.00;102652.91;5003961;28;20025;-58
2021/12/21 10:52:07;;;;;;;22.27;13.07;;;;;;;-1.64;100.00;102654.50;5009072;28;20060;-58
2021/12/21 10:54:37;;;;;;;23.40;14.30;;;;;;;-1.60;100.00;102654.09;5007666;28;20416;-59
2021/12/21 10:57:18;;;;;;;20.30;13.30;;;;;;;-1.55;100.00;102655.50;5008650;28;20062;-59
2021/12/21 10:59:47;;;;;;;18.20;13.03;;;;;;;-1.48;100.00;102650.38;5005225;28;20033;-57
2021/12/21 11:02:21;;;;;;;17.23;12.73;;;;;;;-1.41;100.00;102648.47;5008352;28;20478;-58
2021/12/21 11:04:51;;;;;;;21.13;13.50;;;;;;;-1.36;100.00;102649.88;5008890;28;20065;-58
2021/12/21 11:10:28;;;;;;;17.43;13.10;;;;;;;-1.22;100.00;102641.22;5008947;28;20034;-59
2021/12/21 11:12:58;;;;;;;19.10;12.37;;;;;;;-1.07;100.00;102633.44;5004133;28;20470;-59
2021/12/21 11:15:29;;;;;;;17.47;12.03;;;;;;;-0.99;100.00;102646.25;5008883;28;20378;-59
2021/12/21 11:17:59;;;;;;;21.23;11.23;;;;;;;-0.86;100.00;102650.13;5007715;28;20036;-59
2021/12/21 11:20:25;;;;;;;21.77;11.80;;;;;;;-0.75;100.00;102642.00;5001143;28;20113;-59
2021/12/21 11:22:53;;;;;;;14.77;10.50;;;;;;;-0.59;100.00;102646.19;5007691;28;20323;-59
2021/12/21 11:25:19;;;;;;;18.47;10.60;;;;;;;-0.36;100.00;102635.00;5001584;28;20046;-59
2021/12/21 11:34:14;;;;;;;12.77;8.83;;;;;;;0.19;99.61;102612.53;5003475;28;20085;-58
2021/12/21 11:39:31;;;;;;;13.27;8.67;;;;;;;0.53;98.77;102587.00;5002172;28;20119;-59
2021/12/21 11:41:57;;;;;;;14.97;8.53;;;;;;;0.75;97.93;102586.63;4997393;28;20018;-59
2021/12/21 11:44:29;;;;;;;13.33;7.93;;;;;;;1.00;96.21;102576.31;5001550;28;20034;-59
2021/12/21 11:47:01;;;;;;;12.07;7.30;;;;;;;1.26;94.60;102583.09;5001485;28;20072;-58
2021/12/21 11:49:55;;;;;;;9.63;7.23;;;;;;;1.62;91.09;102583.97;4995530;28;20149;-59
2021/12/21 11:52:24;;;;;;;14.33;8.07;;;;;;;1.94;91.60;102582.72;4997464;28;20092;-59
2021/12/21 11:54:52;;;;;;;11.87;7.40;;;;;;;2.09;88.39;102596.94;4999599;28;20300;-58
2021/12/21 11:57:20;;;;;;;9.03;6.80;;;;;;;2.28;88.50;102584.22;4998639;28;20069;-57
2021/12/21 11:59:47;;;;;;;9.87;6.97;;;;;;;2.51;86.26;102588.06;4999519;28;20048;-58
2021/12/21 12:02:13;;;;;;;13.20;7.57;;;;;;;2.68;86.74;102587.81;5001512;28;20036;-59
2021/12/21 12:04:39;;;;;;;11.80;7.10;;;;;;;2.82;85.65;102590.00;4997590;28;20022;-58
2021/12/21 12:07:16;;;;;;;12.17;7.97;;;;;;;2.93;84.93;102587.50;4995881;28;20518;-59
2021/12/21 12:09:41;;;;;;;10.30;6.80;;;;;;;2.96;82.26;102580.09;5000853;28;20018;-58
2021/12/21 12:12:08;;;;;;;12.00;7.63;;;;;;;3.12;84.32;102580.75;5003715;28;20030;-58
2021/12/21 12:14:36;;;;;;;12.70;7.27;;;;;;;3.18;81.57;102576.94;4998216;28;20045;-58
2021/12/21 12:17:09;;;;;;;13.40;7.23;;;;;;;3.29;81.76;102565.09;5000096;28;20026;-58
2021/12/21 12:19:38;;;;;;;10.60;6.90;;;;;;;3.29;81.95;102563.41;5001801;28;20367;-58
2021/12/21 12:22:03;;;;;;;11.10;6.57;;;;;;;3.34;81.08;102562.19;4999204;28;20027;-59